Simonshaven, Netherlands

7:32 PM CET on December 25, 2014 (GMT +0100)
PA3ACA - Schenkel - | Change Station
CLOSE
Current Station
Personal Weather Station
Location: Spijkenisse, ZUID-HOLLAND
Elevation: 192 ft
Nearby Weather Stations

Elev 192 ft 51.85 °N, 4.35 °E | Updated 12 minutes ago

Partly Cloudy
Partly Cloudy
41.6 °F
Feels Like 37 °F
N
7.0
Wind Variable Wind from West
Gusts 18.0 mph

Today
High -- | Low -- °F
--% Chance of Precip.
Yesterday
High -- | Low -- °F
Precip. -- in
8:49 AM 4:36 PM
Waxing Crescent, 18% visible
Pressure 30.33 in
Visibility 6.2 miles
Clouds Few 1500 ft
Windchill 37 °F
Dew Point 36 °F
Humidity 81%
Rainfall 0.15 in
Snow Depth Not available.
UV 0 out of 12
Pollen Not available.
Air Quality Not available.
Flu Activity Not available.
METAR EHRD 251825Z AUTO 25006KT 9999 FEW015CB 04/03 Q1027 TEMPO 6000 -SHRA

More Conditions Fewer Conditions

Pressure 30.33 in
Visibility 6.2 miles
Clouds Few 1500 ft
Windchill 37 °F
Dew Point 36 °F
Humidity 81%
Rainfall 0.15 in
Snow Depth Not available.
UV 0 out of 12
Pollen Not available.
Air Quality Not available.
Flu Activity Not available.
METAR EHRD 251825Z AUTO 25006KT 9999 FEW015CB 04/03 Q1027 TEMPO 6000 -SHRA

More Conditions Fewer Conditions

10-Day Weather Forecast

Almanac

Astronomy

Dec. 25, 2014 Rise Set
Actual Time
Civil Twilight
Nautical Twilight
Astronomical Twilight
Moon
Length of Visible Light
Length of Day
Tomorrow will be .
, % of the Moon is Illuminated

Today's Extremes

Country Highs Country Lows

Community

WunderPhotos

Upload Photos

1,780,357 photos uploaded!

WunderBlogs® & News

Nearby

Air Quality

  Air Quality AQ Index Pollutant
Not available.

Snow Depth

Station Depth Elevation

Earthquake Activity

City Distance Mag. Time & Date
Minimum magnitude displayed is 2.5.

Coastal Water Temperatures

Place Temperature

Nearby Weather Stations